Time;durP1;ratioP1;P1;durP2;ratioP2;P2;SDS_P1;SDS_P2;PMS_P1;PMS_P2;Temp;Humidity;BMP_temperature;BMP_pressure;BME280_temperature;BME280_humidity;BME280_pressure;Samples;Min_cycle;Max_cycle;Signal;HPM_P1;HPM_P2
2023/08/09 00:00:35;;;;;;;6.50;1.67;;;11.00;99.90;;;;;;5073630;28;20467;-50
2023/08/09 00:03:02;;;;;;;3.93;1.20;;;11.00;1.40;;;;;;5073778;28;20468;-50
2023/08/09 00:05:29;;;;;;;2.70;1.27;;;11.10;99.90;;;;;;5063456;28;20546;-50
2023/08/09 00:07:56;;;;;;;2.00;1.10;;;11.00;1.40;;;;;;5070467;28;20484;-51
2023/08/09 00:10:22;;;;;;;2.07;1.40;;;11.00;99.90;;;;;;5071311;28;20858;-51
2023/08/09 00:12:49;;;;;;;19.87;1.57;;;10.90;99.90;;;;;;5073195;28;20497;-50
2023/08/09 00:15:18;;;;;;;2.10;1.63;;;10.90;1.40;;;;;;5072817;28;20519;-50
2023/08/09 00:17:45;;;;;;;3.73;1.17;;;11.00;1.40;;;;;;5069395;28;20484;-50
2023/08/09 00:20:13;;;;;;;5.90;1.20;;;10.90;99.90;;;;;;5071270;28;20882;-51
2023/08/09 00:22:40;;;;;;;1.57;1.10;;;10.90;1.40;;;;;;5065615;28;20517;-50
2023/08/09 00:25:10;;;;;;;1.63;1.40;;;10.90;1.40;;;;;;5066996;28;20468;-51
2023/08/09 00:27:37;;;;;;;5.40;1.30;;;11.00;1.40;;;;;;5073392;28;20449;-51
2023/08/09 00:30:04;;;;;;;1.60;1.50;;;10.90;99.90;;;;;;5063530;28;20970;-50
2023/08/09 00:32:33;;;;;;;4.03;1.30;;;10.90;99.90;;;;;;5063608;28;20509;-50
2023/08/09 00:34:59;;;;;;;2.53;1.47;;;10.90;99.90;;;;;;5069002;28;20519;-51
2023/08/09 00:37:26;;;;;;;5.10;1.90;;;10.90;99.90;;;;;;5069602;28;20967;-50
2023/08/09 00:39:53;;;;;;;3.90;1.70;;;10.90;99.90;;;;;;5068355;28;20944;-51
2023/08/09 00:42:19;;;;;;;1.60;1.43;;;10.90;1.40;;;;;;5052874;28;20501;-51
2023/08/09 00:44:46;;;;;;;4.53;1.50;;;11.00;99.90;;;;;;5052003;28;20964;-50
2023/08/09 00:47:13;;;;;;;1.83;1.63;;;10.90;99.90;;;;;;5055881;28;20463;-50
2023/08/09 00:49:41;;;;;;;6.33;1.67;;;10.90;99.90;;;;;;5063623;28;20473;-50
2023/08/09 00:52:08;;;;;;;1.53;1.43;;;10.90;99.90;;;;;;5070541;28;20491;-50
2023/08/09 00:54:36;;;;;;;3.70;1.17;;;11.00;99.90;;;;;;5071931;28;20445;-50
2023/08/09 00:57:02;;;;;;;6.07;1.60;;;11.00;1.40;;;;;;5069458;28;20886;-50
2023/08/09 00:59:29;;;;;;;4.30;1.23;;;11.00;99.90;;;;;;5070172;28;20522;-50
2023/08/09 01:01:55;;;;;;;2.10;1.80;;;11.10;99.90;;;;;;5062220;28;20519;-50
2023/08/09 01:04:22;;;;;;;2.83;1.53;;;11.00;99.90;;;;;;5069965;28;20883;-51
2023/08/09 01:06:55;;;;;;;1.43;1.33;;;11.10;99.90;;;;;;5070798;28;20492;-51
2023/08/09 01:09:33;;;;;;;2.00;1.40;;;11.10;99.90;;;;;;5071082;28;20471;-51
2023/08/09 01:12:07;;;;;;;4.30;1.80;;;11.10;99.90;;;;;;5068691;28;20572;-50
2023/08/09 01:14:36;;;;;;;1.80;1.70;;;11.10;99.90;;;;;;5066536;28;20456;-50
2023/08/09 01:17:06;;;;;;;1.80;1.63;;;11.10;99.90;;;;;;5071074;28;20460;-50
2023/08/09 01:19:39;;;;;;;1.67;1.57;;;11.10;99.90;;;;;;5070753;28;20905;-51
2023/08/09 01:22:13;;;;;;;8.10;1.40;;;11.10;99.90;;;;;;5071023;28;21010;-51
2023/08/09 01:24:41;;;;;;;1.70;1.60;;;11.10;99.90;;;;;;5071245;28;20957;-51
2023/08/09 01:27:08;;;;;;;2.60;1.63;;;11.00;99.90;;;;;;5064056;28;20503;-51
2023/08/09 01:29:35;;;;;;;1.80;1.67;;;11.00;99.90;;;;;;5071725;28;20495;-50
2023/08/09 01:32:02;;;;;;;1.60;1.50;;;11.00;99.90;;;;;;5070817;28;20543;-51
2023/08/09 01:34:30;;;;;;;5.23;1.53;;;11.00;99.90;;;;;;5062253;28;20462;-50
2023/08/09 01:37:03;;;;;;;2.50;1.70;;;10.90;99.90;;;;;;5070330;28;20465;-50
2023/08/09 01:39:35;;;;;;;2.23;1.30;;;10.90;99.90;;;;;;5071968;28;20436;-51
2023/08/09 01:42:03;;;;;;;1.50;1.40;;;10.90;99.90;;;;;;5071302;28;20453;-51
2023/08/09 01:44:31;;;;;;;3.73;1.50;;;10.90;99.90;;;;;;5062155;28;20904;-50
2023/08/09 01:46:58;;;;;;;2.73;1.60;;;10.90;99.90;;;;;;5070724;28;20500;-50
2023/08/09 01:49:25;;;;;;;5.70;1.33;;;10.90;99.90;;;;;;5063324;28;20465;-51
2023/08/09 01:51:52;;;;;;;3.93;1.80;;;10.90;99.90;;;;;;5066022;28;20516;-51
2023/08/09 01:54:19;;;;;;;1.67;1.57;;;10.90;99.90;;;;;;5068332;28;20465;-51
2023/08/09 01:56:45;;;;;;;5.47;1.80;;;10.90;99.90;;;;;;5060735;28;21017;-50
2023/08/09 01:59:14;;;;;;;1.47;1.37;;;10.90;99.90;;;;;;5071418;28;20996;-50
2023/08/09 02:01:41;;;;;;;2.90;1.60;;;10.90;1.40;;;;;;5071193;28;20473;-50
2023/08/09 02:04:09;;;;;;;2.77;1.60;;;10.80;99.90;;;;;;5068761;28;20493;-50
2023/08/09 02:06:38;;;;;;;4.30;1.60;;;10.80;1.40;;;;;;5062312;28;20461;-49
2023/08/09 02:09:06;;;;;;;4.60;1.60;;;10.80;99.90;;;;;;5071442;28;20935;-52
2023/08/09 02:11:32;;;;;;;1.73;1.60;;;10.80;99.90;;;;;;5071481;28;20465;-50
2023/08/09 02:13:59;;;;;;;7.00;1.93;;;10.80;1.40;;;;;;5062350;28;20578;-50
2023/08/09 02:16:27;;;;;;;2.13;1.93;;;10.80;99.90;;;;;;5071381;28;20441;-50
2023/08/09 02:18:54;;;;;;;3.10;1.47;;;10.80;99.90;;;;;;5070760;28;20576;-50
2023/08/09 02:21:21;;;;;;;1.50;1.40;;;10.80;99.90;;;;;;5068271;28;20538;-50
2023/08/09 02:23:48;;;;;;;2.97;1.93;;;10.90;99.90;;;;;;5066962;28;20457;-50
2023/08/09 02:26:15;;;;;;;1.63;1.50;;;10.90;1.40;;;;;;5066673;28;20441;-50
2023/08/09 02:28:42;;;;;;;3.17;1.50;;;10.90;1.40;;;;;;5071257;28;20452;-51
2023/08/09 02:31:09;;;;;;;5.03;1.57;;;10.90;1.40;;;;;;5070165;28;20500;-50
2023/08/09 02:33:37;;;;;;;5.83;1.80;;;10.90;99.90;;;;;;5062771;28;20492;-51
2023/08/09 02:36:05;;;;;;;4.43;1.57;;;11.00;99.90;;;;;;5069560;28;20684;-50
2023/08/09 02:38:32;;;;;;;4.77;1.43;;;11.00;99.90;;;;;;5069727;28;20452;-51
2023/08/09 02:41:00;;;;;;;1.43;1.33;;;11.00;99.90;;;;;;5070056;28;20505;-50
2023/08/09 02:43:27;;;;;;;5.80;1.87;;;11.00;99.90;;;;;;5070929;28;20438;-50
2023/08/09 02:45:54;;;;;;;4.20;1.70;;;10.90;99.90;;;;;;5069875;28;20437;-50
2023/08/09 02:48:22;;;;;;;1.40;1.30;;;10.90;99.90;;;;;;5067594;28;20436;-50
2023/08/09 02:50:50;;;;;;;4.43;1.70;;;10.90;99.90;;;;;;5053118;28;20476;-53
2023/08/09 02:53:17;;;;;;;4.93;1.57;;;10.90;99.90;;;;;;5071066;28;20487;-51
2023/08/09 02:55:44;;;;;;;1.57;1.40;;;10.80;99.90;;;;;;5069983;28;20969;-51
2023/08/09 02:58:11;;;;;;;1.77;1.43;;;10.80;99.90;;;;;;5070173;28;20496;-50
2023/08/09 03:00:38;;;;;;;4.57;1.90;;;10.90;99.90;;;;;;5069724;28;20580;-50
2023/08/09 03:03:06;;;;;;;2.30;1.33;;;10.90;99.90;;;;;;5061521;28;20449;-51
2023/08/09 03:05:32;;;;;;;8.30;1.70;;;10.80;99.90;;;;;;5070848;28;20498;-51
2023/08/09 03:08:00;;;;;;;1.33;1.23;;;10.80;99.90;;;;;;5062913;28;20461;-51
2023/08/09 03:10:27;;;;;;;5.03;1.80;;;10.80;99.90;;;;;;5069817;28;20566;-50
2023/08/09 03:12:54;;;;;;;5.73;1.43;;;10.80;99.90;;;;;;5065487;28;20557;-50
2023/08/09 03:15:21;;;;;;;1.53;1.43;;;10.70;99.90;;;;;;5067817;28;20496;-51
2023/08/09 03:17:48;;;;;;;10.90;1.70;;;10.70;99.90;;;;;;5070775;28;20482;-51
2023/08/09 03:20:15;;;;;;;4.33;1.50;;;10.80;99.90;;;;;;5074432;28;20445;-50
2023/08/09 03:22:41;;;;;;;4.33;1.70;;;10.70;99.90;;;;;;5064518;28;21051;-51
2023/08/09 03:25:10;;;;;;;12.33;1.73;;;10.70;99.90;;;;;;5067028;28;20544;-50
2023/08/09 03:27:38;;;;;;;6.43;1.30;;;10.70;99.90;;;;;;5071750;28;20488;-50
2023/08/09 03:30:06;;;;;;;7.20;1.50;;;10.80;99.90;;;;;;5073034;28;20499;-51
2023/08/09 03:32:32;;;;;;;4.20;1.50;;;10.70;99.90;;;;;;5074118;28;20456;-51
2023/08/09 03:34:59;;;;;;;3.27;1.40;;;10.60;99.90;;;;;;5072623;28;20882;-51
2023/08/09 03:37:26;;;;;;;6.53;1.60;;;10.60;99.90;;;;;;5064804;28;20493;-50
2023/08/09 03:39:52;;;;;;;2.23;1.20;;;10.60;99.90;;;;;;5073840;28;20951;-50
2023/08/09 03:42:20;;;;;;;4.87;1.43;;;10.60;99.90;;;;;;5073895;28;21063;-50
2023/08/09 03:44:47;;;;;;;5.70;1.63;;;10.50;99.90;;;;;;5071217;28;20874;-51
2023/08/09 03:47:13;;;;;;;3.33;1.80;;;10.50;99.90;;;;;;5069178;28;20488;-51
2023/08/09 03:49:40;;;;;;;2.03;1.50;;;10.40;99.90;;;;;;5070541;28;20457;-51
2023/08/09 03:52:06;;;;;;;4.00;2.20;;;10.40;99.90;;;;;;5060836;28;20514;-51
2023/08/09 03:54:33;;;;;;;7.30;1.43;;;10.30;99.90;;;;;;5070795;28;20481;-50
2023/08/09 03:57:00;;;;;;;2.63;1.60;;;10.40;99.90;;;;;;5072922;28;20493;-50
2023/08/09 03:59:27;;;;;;;3.90;1.27;;;10.30;99.90;;;;;;5072899;28;20518;-51
2023/08/09 04:01:54;;;;;;;3.07;1.63;;;10.30;99.90;;;;;;5066042;28;20559;-51
2023/08/09 04:04:20;;;;;;;4.10;1.10;;;10.30;99.90;;;;;;5064152;28;20493;-51
2023/08/09 04:06:47;;;;;;;4.00;3.60;;;10.30;99.90;;;;;;5071684;28;20504;-51
2023/08/09 04:09:13;;;;;;;6.97;2.80;;;10.30;99.90;;;;;;5073216;28;20936;-51
2023/08/09 04:11:40;;;;;;;4.50;3.33;;;10.30;99.90;;;;;;5073531;28;20492;-51
2023/08/09 04:14:08;;;;;;;4.03;3.73;;;10.30;99.90;;;;;;5072789;28;20512;-50
2023/08/09 04:16:36;;;;;;;6.50;2.80;;;10.30;99.90;;;;;;5069729;28;20487;-50
2023/08/09 04:19:02;;;;;;;2.77;2.57;;;10.40;99.90;;;;;;5072305;28;20887;-52
2023/08/09 04:21:29;;;;;;;8.20;2.60;;;10.30;99.90;;;;;;5073200;28;20589;-49
2023/08/09 04:23:55;;;;;;;6.40;2.60;;;10.40;99.90;;;;;;5066177;28;20878;-50
2023/08/09 04:26:22;;;;;;;3.10;1.90;;;10.40;99.90;;;;;;5070312;28;20532;-51
2023/08/09 04:28:49;;;;;;;3.80;2.00;;;10.40;99.90;;;;;;5073157;28;20456;-51
2023/08/09 04:31:15;;;;;;;5.38;2.00;;;10.40;99.90;;;;;;5073035;28;20929;-51
2023/08/09 04:33:49;;;;;;;2.10;1.90;;;10.40;99.90;;;;;;5075094;28;20253;-52
2023/08/09 04:36:15;;;;;;;3.50;1.77;;;10.50;99.90;;;;;;5074320;28;20491;-51
2023/08/09 04:38:42;;;;;;;2.60;1.87;;;10.50;99.90;;;;;;5078495;28;20445;-51
2023/08/09 04:41:09;;;;;;;4.93;1.67;;;10.60;99.90;;;;;;5074421;28;20872;-51
2023/08/09 04:43:37;;;;;;;5.93;2.40;;;10.60;99.90;;;;;;5069231;28;20556;-52
2023/08/09 04:46:03;;;;;;;11.40;4.23;;;10.60;99.90;;;;;;5072029;28;20935;-50
2023/08/09 04:48:30;;;;;;;10.83;5.40;;;10.70;99.90;;;;;;5072757;28;20444;-51
2023/08/09 04:50:58;;;;;;;7.17;4.50;;;10.70;99.90;;;;;;5071395;28;20457;-51
2023/08/09 04:53:25;;;;;;;7.13;2.70;;;10.70;99.90;;;;;;5071728;28;20538;-50
2023/08/09 04:55:51;;;;;;;6.10;2.60;;;10.70;99.90;;;;;;5069914;28;20900;-52
2023/08/09 04:58:18;;;;;;;2.17;1.97;;;10.70;99.90;;;;;;5072456;28;20465;-51
2023/08/09 05:00:45;;;;;;;4.20;2.03;;;10.70;99.90;;;;;;5072337;28;20485;-51
2023/08/09 05:03:11;;;;;;;3.83;2.13;;;10.70;99.90;;;;;;5069608;28;20904;-50
2023/08/09 05:05:38;;;;;;;5.43;1.63;;;10.80;99.90;;;;;;5071537;28;20523;-51
2023/08/09 05:08:06;;;;;;;2.80;1.87;;;10.80;99.90;;;;;;5063251;28;20507;-51
2023/08/09 05:10:32;;;;;;;2.50;1.67;;;10.80;99.90;;;;;;5063274;28;20811;-52
2023/08/09 05:12:59;;;;;;;10.80;2.47;;;10.90;99.90;;;;;;5071364;28;20515;-51
2023/08/09 05:15:25;;;;;;;4.30;2.70;;;10.90;99.90;;;;;;5071540;28;20440;-51
2023/08/09 05:17:52;;;;;;;5.23;1.90;;;11.00;99.90;;;;;;5062956;28;20946;-51
2023/08/09 05:20:19;;;;;;;3.53;1.70;;;11.00;99.90;;;;;;5071961;28;20916;-51
2023/08/09 05:22:46;;;;;;;2.60;2.00;;;11.10;99.90;;;;;;5062832;28;20516;-51
2023/08/09 05:25:13;;;;;;;4.87;1.93;;;11.10;99.90;;;;;;5071267;28;20869;-50
2023/08/09 05:27:40;;;;;;;3.20;2.23;;;11.10;99.90;;;;;;5061406;28;20501;-51
2023/08/09 05:30:08;;;;;;;8.73;1.50;;;11.20;99.90;;;;;;5071716;28;20962;-52
2023/08/09 05:32:35;;;;;;;7.50;1.77;;;11.30;99.90;;;;;;5069774;28;20866;-51
2023/08/09 05:35:01;;;;;;;11.90;1.73;;;11.30;99.90;;;;;;5069726;28;21069;-51
2023/08/09 05:37:28;;;;;;;2.57;1.60;;;11.40;99.90;;;;;;5070186;28;20966;-50
2023/08/09 05:39:54;;;;;;;7.97;2.07;;;11.40;99.90;;;;;;5071927;28;20476;-52
2023/08/09 05:42:22;;;;;;;3.43;1.90;;;11.50;99.90;;;;;;5064030;28;20524;-51
2023/08/09 05:44:49;;;;;;;10.70;2.23;;;11.50;99.90;;;;;;5070869;28;20960;-51
2023/08/09 05:47:15;;;;;;;5.27;2.17;;;11.60;99.90;;;;;;5064779;28;20490;-50
2023/08/09 05:49:42;;;;;;;2.80;1.70;;;11.70;99.90;;;;;;5068830;28;20487;-50
2023/08/09 05:52:09;;;;;;;5.50;2.13;;;11.80;99.90;;;;;;5070589;28;20504;-51
2023/08/09 05:54:35;;;;;;;3.90;1.53;;;11.80;99.90;;;;;;5070986;28;20523;-51
2023/08/09 05:57:02;;;;;;;5.20;2.60;;;11.90;99.90;;;;;;5062766;28;20955;-51
2023/08/09 05:59:30;;;;;;;2.00;1.80;;;11.90;99.90;;;;;;5070431;28;20528;-51
2023/08/09 06:01:57;;;;;;;5.10;2.07;;;12.10;99.90;;;;;;5070170;28;20492;-51
2023/08/09 06:04:24;;;;;;;5.57;2.40;;;12.20;99.90;;;;;;5071138;28;20441;-51
2023/08/09 06:06:51;;;;;;;7.60;2.17;;;12.30;99.90;;;;;;5070053;28;20448;-51
2023/08/09 06:09:17;;;;;;;5.47;1.40;;;12.30;99.90;;;;;;5071422;28;20469;-52
2023/08/09 06:11:44;;;;;;;3.13;1.70;;;12.40;99.90;;;;;;5071479;28;20500;-51
2023/08/09 06:14:11;;;;;;;5.50;1.70;;;12.40;99.90;;;;;;5070743;28;20575;-51
2023/08/09 06:16:38;;;;;;;11.63;2.40;;;12.40;99.90;;;;;;5071766;28;20480;-53
2023/08/09 06:19:05;;;;;;;8.67;1.93;;;12.50;99.90;;;;;;5070346;28;20464;-51
2023/08/09 06:21:31;;;;;;;9.00;1.77;;;12.50;99.90;;;;;;5067465;28;20480;-50
2023/08/09 06:23:58;;;;;;;7.27;1.80;;;12.50;99.90;;;;;;5067502;28;20485;-50
2023/08/09 06:26:24;;;;;;;5.87;1.80;;;12.50;99.90;;;;;;5064699;28;20441;-51
2023/08/09 06:28:51;;;;;;;19.63;2.43;;;12.50;99.90;;;;;;5068564;28;20471;-51
2023/08/09 06:31:18;;;;;;;7.40;2.13;;;12.60;99.90;;;;;;5066771;28;20552;-52
2023/08/09 06:33:45;;;;;;;2.00;1.77;;;12.70;99.90;;;;;;5070416;28;20508;-50
2023/08/09 06:36:13;;;;;;;6.80;1.87;;;12.70;99.90;;;;;;5064209;28;20472;-52
2023/08/09 06:38:39;;;;;;;2.00;1.60;;;12.80;99.90;;;;;;5067172;28;20550;-51
2023/08/09 06:41:06;;;;;;;5.70;2.57;;;12.90;99.90;;;;;;5070890;28;20496;-51
2023/08/09 06:43:32;;;;;;;6.37;1.90;;;13.00;99.90;;;;;;5070284;28;20484;-51
2023/08/09 06:45:59;;;;;;;6.00;1.67;;;13.10;99.90;;;;;;5076029;28;20487;-51
2023/08/09 06:48:29;;;;;;;5.47;1.93;;;13.20;99.90;;;;;;5061808;28;20468;-52
2023/08/09 06:50:57;;;;;;;14.83;2.10;;;13.30;99.90;;;;;;5074615;28;20493;-51
2023/08/09 06:53:24;;;;;;;8.70;1.63;;;13.40;99.90;;;;;;5073376;28;20494;-51
2023/08/09 06:55:50;;;;;;;3.60;2.00;;;13.40;99.90;;;;;;5065124;28;20468;-52
2023/08/09 06:58:17;;;;;;;9.07;2.40;;;13.50;99.90;;;;;;5073077;28;20504;-52
2023/08/09 07:00:46;;;;;;;5.00;2.10;;;13.60;99.90;;;;;;5072740;28;21129;-51
2023/08/09 07:03:12;;;;;;;7.70;1.90;;;13.60;99.90;;;;;;5070742;28;20553;-50
2023/08/09 07:05:39;;;;;;;5.37;2.00;;;13.70;22.50;;;;;;5068478;28;20990;-50
2023/08/09 07:08:07;;;;;;;5.73;2.00;;;13.70;27.40;;;;;;5073441;28;20483;-51
2023/08/09 07:10:34;;;;;;;7.27;1.97;;;13.80;33.80;;;;;;5073798;28;20985;-51
2023/08/09 07:13:01;;;;;;;7.43;2.10;;;13.90;33.00;;;;;;5068143;28;20493;-51
2023/08/09 07:15:27;;;;;;;8.13;1.47;;;14.00;20.80;;;;;;5071271;28;20531;-52
2023/08/09 07:17:54;;;;;;;9.03;2.83;;;14.00;34.00;;;;;;5069422;28;20465;-51
2023/08/09 07:20:21;;;;;;;13.23;2.10;;;14.10;37.80;;;;;;5073417;28;20491;-51
2023/08/09 07:22:47;;;;;;;6.33;1.60;;;14.10;35.20;;;;;;5064722;28;20492;-51
2023/08/09 07:25:15;;;;;;;9.47;2.27;;;14.10;44.30;;;;;;5073197;28;20437;-51
2023/08/09 07:27:43;;;;;;;13.90;2.13;;;14.10;42.00;;;;;;5069776;28;20516;-51
2023/08/09 07:30:11;;;;;;;8.07;2.87;;;14.10;45.60;;;;;;5067145;28;20544;-51
2023/08/09 07:32:38;;;;;;;7.03;1.90;;;14.10;44.90;;;;;;5072394;28;20491;-50
2023/08/09 07:35:06;;;;;;;10.67;2.80;;;14.20;44.20;;;;;;5072886;28;20480;-52
2023/08/09 07:37:34;;;;;;;17.87;2.37;;;14.20;58.60;;;;;;5064342;28;20493;-51
2023/08/09 07:40:02;;;;;;;9.57;2.10;;;14.40;40.20;;;;;;5064284;28;20812;-50
2023/08/09 07:42:30;;;;;;;12.07;2.43;;;14.60;36.60;;;;;;5073697;28;20469;-51
2023/08/09 07:44:59;;;;;;;7.97;2.57;;;14.70;58.20;;;;;;5072525;28;20870;-52
2023/08/09 07:47:25;;;;;;;6.77;2.00;;;14.80;59.90;;;;;;5075179;28;20568;-51
2023/08/09 07:49:52;;;;;;;3.27;1.90;;;14.80;93.40;;;;;;5066407;28;20484;-50
2023/08/09 07:52:18;;;;;;;10.67;2.60;;;14.80;92.70;;;;;;5072474;28;20537;-51
2023/08/09 07:54:45;;;;;;;2.90;1.57;;;14.80;92.30;;;;;;5072822;28;20481;-50
2023/08/09 07:57:13;;;;;;;12.17;2.20;;;14.80;91.80;;;;;;5068528;28;20472;-51
2023/08/09 07:59:40;;;;;;;6.90;2.20;;;14.90;87.00;;;;;;5067382;28;20484;-51
2023/08/09 08:02:07;;;;;;;5.30;1.87;;;14.90;76.40;;;;;;5070157;28;20516;-51
2023/08/09 08:04:34;;;;;;;10.17;2.07;;;15.00;93.40;;;;;;5072714;28;20433;-52
2023/08/09 08:07:00;;;;;;;15.63;2.53;;;15.10;93.10;;;;;;5074488;28;20448;-52
2023/08/09 08:09:27;;;;;;;6.50;2.10;;;15.20;89.30;;;;;;5083457;28;20453;-56
2023/08/09 08:11:53;;;;;;;3.10;1.83;;;15.40;94.70;;;;;;5084084;28;20489;-52
2023/08/09 08:14:20;;;;;;;8.23;2.40;;;15.50;99.90;;;;;;5077645;28;21002;-51
2023/08/09 08:16:48;;;;;;;15.00;1.80;;;15.50;99.90;;;;;;5080347;28;20457;-52
2023/08/09 08:19:15;;;;;;;15.40;2.47;;;15.70;99.90;;;;;;5084100;28;20843;-60
2023/08/09 08:21:42;;;;;;;7.07;1.70;;;15.70;99.90;;;;;;5069962;28;20509;-51
2023/08/09 08:24:09;;;;;;;8.27;1.83;;;15.70;99.90;;;;;;5060585;28;20542;-51
2023/08/09 08:26:36;;;;;;;11.00;2.10;;;15.60;99.90;;;;;;5070145;28;20997;-51
2023/08/09 08:29:02;;;;;;;28.43;2.37;;;15.60;99.90;;;;;;5063542;28;20837;-52
2023/08/09 08:31:29;;;;;;;13.00;1.83;;;15.70;99.90;;;;;;5075153;28;20884;-50
2023/08/09 08:33:57;;;;;;;10.40;2.10;;;15.80;99.90;;;;;;5067625;28;20885;-50
2023/08/09 08:36:23;;;;;;;5.83;1.93;;;15.80;99.90;;;;;;5068672;28;20516;-51
2023/08/09 08:38:50;;;;;;;6.37;2.30;;;15.80;99.90;;;;;;5068928;28;20504;-51
2023/08/09 08:41:17;;;;;;;8.00;2.10;;;15.90;99.90;;;;;;5072631;28;20465;-51
2023/08/09 08:43:45;;;;;;;7.03;2.07;;;15.90;99.90;;;;;;5068317;28;20489;-51
2023/08/09 08:46:15;;;;;;;9.80;2.40;;;16.00;99.90;;;;;;5062856;28;20552;-51
2023/08/09 08:48:47;;;;;;;8.57;1.93;;;16.00;99.90;;;;;;5071693;28;20465;-51
2023/08/09 08:51:15;;;;;;;10.13;2.50;;;16.00;99.90;;;;;;5070218;28;20508;-52
2023/08/09 08:53:42;;;;;;;9.20;2.50;;;16.00;99.90;;;;;;5066862;28;20489;-51
2023/08/09 08:56:09;;;;;;;9.23;2.27;;;16.00;99.90;;;;;;5063711;28;20481;-51
2023/08/09 08:58:36;;;;;;;11.87;2.03;;;16.10;99.90;;;;;;5070718;28;20971;-50
2023/08/09 09:01:04;;;;;;;3.03;1.57;;;16.00;99.90;;;;;;5069822;28;20516;-51
2023/08/09 09:03:30;;;;;;;6.30;2.10;;;16.10;99.90;;;;;;5065536;28;20464;-51
2023/08/09 09:05:57;;;;;;;6.07;2.23;;;16.20;99.90;;;;;;5068566;28;20493;-49
2023/08/09 09:08:26;;;;;;;4.10;1.97;;;16.30;99.90;;;;;;5069984;28;20461;-51
2023/08/09 09:10:54;;;;;;;13.53;1.80;;;16.40;99.90;;;;;;5069581;28;20485;-51
2023/08/09 09:13:25;;;;;;;4.00;1.97;;;16.60;99.90;;;;;;5071246;28;20532;-51
2023/08/09 09:15:52;;;;;;;5.70;1.53;;;16.60;99.90;;;;;;5064621;28;20493;-50
2023/08/09 09:18:19;;;;;;;9.73;2.50;;;16.50;99.90;;;;;;5071091;28;20464;-50
2023/08/09 09:20:46;;;;;;;5.87;1.80;;;16.50;99.90;;;;;;5069807;28;20504;-52
2023/08/09 09:23:27;;;;;;;6.17;2.30;;;16.50;99.90;;;;;;5068815;28;20515;-51
2023/08/09 09:26:02;;;;;;;5.70;1.63;;;16.70;99.90;;;;;;5059157;28;20499;-50
2023/08/09 09:28:29;;;;;;;3.63;1.80;;;16.70;99.90;;;;;;5066053;28;20475;-51
2023/08/09 09:30:59;;;;;;;5.50;1.67;;;16.90;99.90;;;;;;5064881;28;20473;-52
2023/08/09 09:33:33;;;;;;;7.53;2.00;;;17.00;99.90;;;;;;5070102;28;21024;-52
2023/08/09 09:36:00;;;;;;;12.13;2.03;;;17.30;99.90;;;;;;5071397;28;20468;-50
2023/08/09 09:38:28;;;;;;;5.00;1.83;;;17.40;99.90;;;;;;5063483;28;20492;-50
2023/08/09 09:40:56;;;;;;;6.90;2.20;;;17.70;99.90;;;;;;5067846;28;21073;-51
2023/08/09 09:43:23;;;;;;;16.07;2.33;;;17.60;99.90;;;;;;5070731;28;20457;-50
2023/08/09 09:45:53;;;;;;;6.60;1.57;;;18.10;99.90;;;;;;5058482;28;20458;-50
2023/08/09 09:48:20;;;;;;;4.27;2.00;;;17.80;74.60;;;;;;5060733;28;20457;-50
2023/08/09 09:50:48;;;;;;;8.60;1.43;;;17.90;83.60;;;;;;5070873;28;20441;-51
2023/08/09 09:53:16;;;;;;;6.50;1.97;;;18.10;22.30;;;;;;5069121;28;21250;-50
2023/08/09 09:55:44;;;;;;;3.73;1.83;;;18.50;42.80;;;;;;5069890;28;20488;-51
2023/08/09 09:58:13;;;;;;;5.50;2.40;;;18.40;50.30;;;;;;5068887;28;20457;-51
2023/08/09 10:00:44;;;;;;;7.03;1.70;;;18.10;45.70;;;;;;5067799;28;20457;-51
2023/08/09 10:03:13;;;;;;;14.87;3.07;;;17.80;33.20;;;;;;5061761;28;21028;-50
2023/08/09 10:05:41;;;;;;;9.73;1.80;;;17.70;99.50;;;;;;5064359;28;20456;-51
2023/08/09 10:08:10;;;;;;;13.00;1.67;;;17.60;27.90;;;;;;5067429;28;20990;-50
2023/08/09 10:10:38;;;;;;;4.30;1.80;;;17.50;34.90;;;;;;5070035;28;20445;-51
2023/08/09 10:13:09;;;;;;;5.13;1.63;;;17.40;34.50;;;;;;5061218;28;20480;-50
2023/08/09 10:15:41;;;;;;;5.80;1.60;;;17.50;22.60;;;;;;5069311;28;20491;-51
2023/08/09 10:18:11;;;;;;;6.70;2.00;;;17.50;99.90;;;;;;5061318;28;20460;-50
2023/08/09 10:20:39;;;;;;;5.00;1.73;;;17.40;38.00;;;;;;5070432;28;20628;-51
2023/08/09 10:23:06;;;;;;;11.83;1.50;;;17.40;34.50;;;;;;5067779;28;20457;-51
2023/08/09 10:25:42;;;;;;;11.57;1.70;;;17.40;30.20;;;;;;5074450;28;20433;-50
2023/08/09 10:28:10;;;;;;;6.30;1.63;;;17.40;26.60;;;;;;5073535;28;20982;-50
2023/08/09 10:30:45;;;;;;;10.40;2.00;;;17.40;32.90;;;;;;5074585;28;20488;-50
2023/08/09 10:33:18;;;;;;;4.83;1.93;;;17.40;24.30;;;;;;5073123;28;20452;-50
2023/08/09 10:35:46;;;;;;;7.00;1.90;;;17.30;37.60;;;;;;5074063;28;20485;-50
2023/08/09 10:38:14;;;;;;;15.90;1.93;;;17.30;44.40;;;;;;5072079;28;20460;-50
2023/08/09 10:40:42;;;;;;;2.20;1.53;;;17.20;40.60;;;;;;5072368;28;20970;-51
2023/08/09 10:43:10;;;;;;;8.07;1.70;;;17.30;43.20;;;;;;5066021;28;20967;-50
2023/08/09 10:45:38;;;;;;;6.20;1.67;;;17.20;36.30;;;;;;5070165;28;20452;-50
2023/08/09 10:48:20;;;;;;;4.13;1.40;;;17.20;51.00;;;;;;5074443;28;20437;-50
2023/08/09 10:50:46;;;;;;;6.00;1.63;;;17.30;50.20;;;;;;5073326;28;20955;-50
2023/08/09 10:53:19;;;;;;;10.47;1.73;;;17.40;42.10;;;;;;5066983;28;20543;-51
2023/08/09 10:55:46;;;;;;;6.10;1.00;;;17.40;40.60;;;;;;5073324;28;20481;-50
2023/08/09 10:58:15;;;;;;;9.47;1.73;;;17.60;45.60;;;;;;5071452;28;21051;-50
2023/08/09 11:00:42;;;;;;;9.50;1.63;;;17.80;62.90;;;;;;5067436;28;20946;-50
2023/08/09 11:03:10;;;;;;;6.10;1.43;;;18.00;65.40;;;;;;5074320;28;20954;-51
2023/08/09 11:05:38;;;;;;;8.53;2.00;;;18.20;78.80;;;;;;5070681;28;20939;-50
2023/08/09 11:08:12;;;;;;;5.23;1.60;;;18.90;96.70;;;;;;5066336;28;20459;-52
2023/08/09 11:10:40;;;;;;;7.33;2.47;;;20.50;99.90;;;;;;5071360;28;20522;-50
2023/08/09 11:13:08;;;;;;;8.63;1.60;;;21.30;99.90;;;;;;5070195;28;20911;-51
2023/08/09 11:15:37;;;;;;;4.67;1.60;;;22.30;99.90;;;;;;5063381;28;21117;-50
2023/08/09 11:18:04;;;;;;;6.23;1.60;;;23.00;99.90;;;;;;5069640;28;20894;-50
2023/08/09 11:20:31;;;;;;;5.10;1.90;;;22.40;99.90;;;;;;5071144;28;21127;-50
2023/08/09 11:22:59;;;;;;;5.07;1.87;;;22.70;99.90;;;;;;5070913;28;20911;-49
2023/08/09 11:25:27;;;;;;;4.47;1.20;;;22.40;99.90;;;;;;5070646;28;20453;-51
2023/08/09 11:27:55;;;;;;;4.23;1.97;;;20.70;99.90;;;;;;5074438;28;20503;-51
2023/08/09 11:30:22;;;;;;;7.00;1.10;;;20.90;99.90;;;;;;5088010;28;20439;-53
2023/08/09 11:33:02;;;;;;;6.40;1.67;;;20.60;99.90;;;;;;5097557;28;20499;-51
2023/08/09 11:35:39;;;;;;;5.77;1.70;;;20.50;99.90;;;;;;5075310;28;20480;-50
2023/08/09 11:38:09;;;;;;;5.53;1.53;;;20.60;99.90;;;;;;5072994;28;20441;-50
2023/08/09 11:40:43;;;;;;;4.10;2.07;;;20.70;99.90;;;;;;5071913;28;20440;-51
2023/08/09 11:43:15;;;;;;;4.33;1.30;;;20.40;99.90;;;;;;5073525;28;20518;-50
2023/08/09 11:45:48;;;;;;;4.53;1.30;;;20.10;99.90;;;;;;5072378;28;20484;-51
2023/08/09 11:48:31;;;;;;;3.87;1.40;;;20.50;99.90;;;;;;5069026;28;20437;-50
2023/08/09 11:51:11;;;;;;;3.47;1.60;;;20.60;99.90;;;;;;5070789;28;20982;-51
2023/08/09 11:53:40;;;;;;;6.57;1.20;;;20.50;99.90;;;;;;5070617;28;20485;-51
2023/08/09 11:56:08;;;;;;;3.80;1.47;;;20.50;99.90;;;;;;5067770;28;21014;-50
2023/08/09 11:58:36;;;;;;;3.60;1.20;;;20.10;99.90;;;;;;5073338;28;20473;-50
2023/08/09 12:01:13;;;;;;;10.70;1.90;;;20.40;99.90;;;;;;5066155;28;20489;-49
2023/08/09 12:03:42;;;;;;;6.93;1.93;;;20.40;99.90;;;;;;5071605;28;20467;-51
2023/08/09 12:06:08;;;;;;;7.60;1.37;;;20.40;99.90;;;;;;5072331;28;20544;-50
2023/08/09 12:08:36;;;;;;;3.17;1.23;;;21.10;99.90;;;;;;5071778;28;20461;-50
2023/08/09 12:11:03;;;;;;;10.90;1.73;;;21.20;99.90;;;;;;5073159;28;20489;-51
2023/08/09 12:13:30;;;;;;;4.40;1.33;;;20.90;99.90;;;;;;5072903;28;20503;-50
2023/08/09 12:15:57;;;;;;;3.43;1.40;;;21.00;99.90;;;;;;5071841;28;20477;-50
2023/08/09 12:18:23;;;;;;;4.40;1.20;;;21.20;99.90;;;;;;5069231;28;20939;-50
2023/08/09 12:20:51;;;;;;;8.17;1.70;;;21.10;99.90;;;;;;5053031;28;20553;-51
2023/08/09 12:23:18;;;;;;;9.10;1.63;;;21.20;99.90;;;;;;5053245;28;20500;-52
2023/08/09 12:25:45;;;;;;;5.40;1.43;;;21.00;99.90;;;;;;5062325;28;20581;-50
2023/08/09 12:28:11;;;;;;;3.07;1.17;;;20.70;99.90;;;;;;5072678;28;20716;-51
2023/08/09 12:30:38;;;;;;;8.30;1.73;;;20.40;99.90;;;;;;5085371;28;20451;-50
2023/08/09 12:33:08;;;;;;;5.03;1.23;;;20.40;99.90;;;;;;5088461;28;20561;-52
2023/08/09 12:35:34;;;;;;;7.33;1.77;;;20.50;99.90;;;;;;5067740;28;20476;-50
2023/08/09 12:38:02;;;;;;;5.33;1.23;;;20.20;99.90;;;;;;5072495;28;20488;-50
2023/08/09 12:40:29;;;;;;;4.67;1.10;;;20.30;99.90;;;;;;5063270;28;20510;-51
2023/08/09 12:42:56;;;;;;;2.60;1.50;;;20.50;99.90;;;;;;5072286;28;20979;-50
2023/08/09 12:45:23;;;;;;;5.20;1.47;;;20.50;99.90;;;;;;5071381;28;20548;-50
2023/08/09 12:47:49;;;;;;;7.60;1.90;;;20.10;99.90;;;;;;5053175;28;20931;-51